createdAt,value
2019-04-28T00:00:02.930Z,60.13
2019-04-28T00:05:03.068Z,60.1
2019-04-28T00:10:02.479Z,60.07
2019-04-28T00:15:03.057Z,60.07
2019-04-28T00:20:02.548Z,60.1
2019-04-28T00:25:02.993Z,60.09
2019-04-28T00:30:02.434Z,60.04
2019-04-28T00:35:02.950Z,60.04
2019-04-28T00:40:03.493Z,60.05
2019-04-28T00:45:02.960Z,60.08
2019-04-28T00:50:02.380Z,60.09
2019-04-28T00:55:02.886Z,60.05
2019-04-28T01:00:03.342Z,60.1
2019-04-28T01:05:02.746Z,60.12
2019-04-28T01:10:03.192Z,60.15
2019-04-28T01:15:04.708Z,60.13
2019-04-28T01:20:02.472Z,60.17
2019-04-28T01:25:02.890Z,60.19
2019-04-28T01:30:08.270Z,60.17
2019-04-28T01:35:02.541Z,60.17
2019-04-28T01:40:02.986Z,60.2
2019-04-28T01:45:02.402Z,60.19
2019-04-28T01:50:02.858Z,60.19
2019-04-28T01:55:03.289Z,60.21
2019-04-28T02:00:02.703Z,60.12
2019-04-28T02:05:03.247Z,60.13
2019-04-28T02:10:02.665Z,60.08
2019-04-28T02:15:03.125Z,60.05
2019-04-28T02:20:02.528Z,60.05
2019-04-28T02:25:02.981Z,60.07
2019-04-28T02:30:02.400Z,60.01
2019-04-28T02:35:02.850Z,60.02
2019-04-28T02:40:03.876Z,59.95
2019-04-28T02:45:03.414Z,59.95
2019-04-28T02:50:02.842Z,59.95
2019-04-28T02:55:03.699Z,60.07
2019-04-28T03:00:03.320Z,60.02
2019-04-28T03:05:02.799Z,60.08
2019-04-28T03:10:03.971Z,60.07
2019-04-28T03:15:01.941Z,60.03
2019-04-28T03:20:02.419Z,60.0
2019-04-28T03:25:02.947Z,60.04
2019-04-28T03:30:02.489Z,60.07
2019-04-28T03:35:03.953Z,60.1
2019-04-28T03:40:02.674Z,60.13
2019-04-28T03:45:03.114Z,60.14
2019-04-28T03:50:02.497Z,60.14
2019-04-28T03:55:02.894Z,60.18
2019-04-28T04:00:03.419Z,60.22
2019-04-28T04:05:04.043Z,60.21
2019-04-28T04:10:02.661Z,60.16
2019-04-28T04:15:04.026Z,60.15
2019-04-28T04:20:02.629Z,60.18
2019-04-28T04:25:03.085Z,60.14
2019-04-28T04:30:03.214Z,60.17
2019-04-28T04:35:02.613Z,60.25
2019-04-28T04:40:03.074Z,60.21
2019-04-28T04:45:02.483Z,60.24
2019-04-28T04:50:02.637Z,60.28
2019-04-28T04:55:03.081Z,60.28
2019-04-28T05:00:01.854Z,60.27
2019-04-28T05:05:03.342Z,60.3
2019-04-28T05:10:02.752Z,60.35
2019-04-28T05:15:02.383Z,60.46
2019-04-28T05:20:02.823Z,60.44
2019-04-28T05:25:03.255Z,60.45
2019-04-28T05:30:05.136Z,60.46
2019-04-28T05:35:02.922Z,60.46
2019-04-28T05:40:03.412Z,60.44
2019-04-28T05:45:02.904Z,60.35
2019-04-28T05:50:03.340Z,60.33
2019-04-28T05:55:02.741Z,60.2
2019-04-28T06:00:03.668Z,60.23
2019-04-28T06:05:03.241Z,60.27
2019-04-28T06:10:02.774Z,60.3
2019-04-28T06:15:03.223Z,60.32
2019-04-28T06:20:02.716Z,60.38
2019-04-28T06:25:03.171Z,60.41
2019-04-28T06:30:02.612Z,60.39
2019-04-28T06:35:03.119Z,60.44
2019-04-28T06:40:02.553Z,60.64
2019-04-28T06:45:02.992Z,62.66
2019-04-28T06:50:02.438Z,62.94
2019-04-28T06:55:02.994Z,62.85
2019-04-28T07:00:02.420Z,62.78
2019-04-28T07:05:02.981Z,62.73
2019-04-28T07:10:02.470Z,62.66
2019-04-28T07:15:02.930Z,62.62
2019-04-28T07:20:03.428Z,62.71
2019-04-28T07:25:02.849Z,62.98
2019-04-28T07:30:03.298Z,62.92
2019-04-28T07:35:02.808Z,62.58
2019-04-28T07:40:03.260Z,62.35
2019-04-28T07:45:02.675Z,62.13
2019-04-28T07:50:03.116Z,61.87
2019-04-28T07:55:02.530Z,61.64
2019-04-28T08:00:03.014Z,61.58
2019-04-28T08:05:02.417Z,61.53
2019-04-28T08:10:02.845Z,61.56
2019-04-28T08:15:03.389Z,61.49
2019-04-28T08:20:05.589Z,61.46
2019-04-28T08:25:03.260Z,61.37
2019-04-28T08:30:02.666Z,61.35
2019-04-28T08:35:03.057Z,61.3
2019-04-28T08:40:02.569Z,61.24
2019-04-28T08:45:02.977Z,61.06
2019-04-28T08:50:02.418Z,61.0
2019-04-28T08:55:02.837Z,60.93
2019-04-28T09:00:03.286Z,60.9
2019-04-28T09:05:02.743Z,60.92
2019-04-28T09:10:03.277Z,60.92
2019-04-28T09:15:02.762Z,60.87
2019-04-28T09:20:03.218Z,60.68
2019-04-28T09:25:02.725Z,60.47
2019-04-28T09:30:03.175Z,60.43
2019-04-28T09:35:20.087Z,60.3
2019-04-28T09:40:02.530Z,60.3
2019-04-28T09:45:02.979Z,60.34
2019-04-28T09:50:02.497Z,60.37
2019-04-28T09:55:02.959Z,60.47
2019-04-28T10:00:02.470Z,60.62
2019-04-28T10:05:02.911Z,60.76
2019-04-28T10:10:03.342Z,60.82
2019-04-28T10:15:02.867Z,60.85
2019-04-28T10:20:03.311Z,60.87
2019-04-28T10:25:02.748Z,60.87
2019-04-28T10:30:02.344Z,60.75
2019-04-28T10:35:01.941Z,60.39
2019-04-28T10:40:03.339Z,60.17
2019-04-28T10:45:02.785Z,59.9
2019-04-28T10:50:03.231Z,59.73
2019-04-28T10:55:02.717Z,59.44
2019-04-28T11:00:03.209Z,59.36
2019-04-28T11:05:08.632Z,59.21
2019-04-28T11:10:02.477Z,59.22
2019-04-28T11:15:03.013Z,59.35
2019-04-28T11:20:02.450Z,59.43
2019-04-28T11:25:02.953Z,59.96
2019-04-28T11:30:03.501Z,59.91
2019-04-28T11:35:02.896Z,60.07
2019-04-28T11:40:03.322Z,59.3
2019-04-28T11:45:02.715Z,58.8
2019-04-28T11:50:03.181Z,58.69
2019-04-28T11:55:02.616Z,58.93
2019-04-28T12:00:03.042Z,59.07
2019-04-28T12:05:02.470Z,58.71
2019-04-28T12:10:05.413Z,57.87
2019-04-28T12:15:02.838Z,57.04
2019-04-28T12:20:03.273Z,56.73
2019-04-28T12:25:02.692Z,56.05
2019-04-28T12:30:03.184Z,56.06
2019-04-28T12:35:02.666Z,55.12
2019-04-28T12:40:03.112Z,55.07
2019-04-28T12:45:02.524Z,55.17
2019-04-28T12:50:03.006Z,55.06
2019-04-28T12:55:02.499Z,53.99
2019-04-28T13:00:02.944Z,53.85
2019-04-28T13:05:03.337Z,53.84
2019-04-28T13:10:02.792Z,53.83
2019-04-28T13:15:03.250Z,53.68
2019-04-28T13:20:02.747Z,53.56
2019-04-28T13:25:03.212Z,53.59
2019-04-28T13:30:02.641Z,53.58
2019-04-28T13:35:03.111Z,53.67
2019-04-28T13:40:02.611Z,55.05
2019-04-28T13:45:03.173Z,56.87
2019-04-28T13:50:02.573Z,57.54
2019-04-28T13:55:03.036Z,58.8
2019-04-28T14:00:02.558Z,57.77
2019-04-28T14:05:02.987Z,55.63
2019-04-28T14:10:02.479Z,53.73
2019-04-28T14:15:02.928Z,50.87
2019-04-28T14:20:03.361Z,49.67
2019-04-28T14:25:02.810Z,48.65
2019-04-28T14:30:03.260Z,48.17
2019-04-28T14:35:02.749Z,47.51
2019-04-28T14:40:03.293Z,47.34
2019-04-28T14:45:02.799Z,47.05
2019-04-28T14:50:03.373Z,47.06
2019-04-28T14:55:02.940Z,46.98
2019-04-28T15:00:03.634Z,47.0
2019-04-28T15:05:03.077Z,47.08
2019-04-28T15:10:02.610Z,47.23
2019-04-28T15:15:03.116Z,47.31
2019-04-28T15:20:02.512Z,47.26
2019-04-28T15:25:02.968Z,47.31
2019-04-28T15:30:02.395Z,47.33
2019-04-28T15:35:02.836Z,47.57
2019-04-28T15:40:03.254Z,47.7
2019-04-28T15:45:02.699Z,47.9
2019-04-28T15:50:03.079Z,47.87
2019-04-28T15:55:02.555Z,47.85
2019-04-28T16:00:03.040Z,47.91
2019-04-28T16:05:02.560Z,47.94
2019-04-28T16:10:03.109Z,47.71
2019-04-28T16:15:02.543Z,47.96
2019-04-28T16:20:03.076Z,48.07
2019-04-28T16:25:02.574Z,48.18
2019-04-28T16:30:03.139Z,48.17
2019-04-28T16:35:02.654Z,47.94
2019-04-28T16:40:06.602Z,47.88
2019-04-28T16:45:02.711Z,47.88
2019-04-28T16:50:03.232Z,47.99
2019-04-28T16:55:02.755Z,48.16
2019-04-28T17:00:03.199Z,48.42
2019-04-28T17:05:02.714Z,48.92
2019-04-28T17:10:03.193Z,49.31
2019-04-28T17:15:02.677Z,49.88
2019-04-28T17:20:02.288Z,50.13
2019-04-28T17:25:02.735Z,50.42
2019-04-28T17:30:03.187Z,50.6
2019-04-28T17:35:02.599Z,50.74
2019-04-28T17:40:03.024Z,50.81
2019-04-28T17:45:02.467Z,50.93
2019-04-28T17:50:02.909Z,51.15
2019-04-28T17:55:03.387Z,51.44
2019-04-28T18:00:02.838Z,51.52
2019-04-28T18:05:03.275Z,51.8
2019-04-28T18:10:02.722Z,51.96
2019-04-28T18:15:03.159Z,52.16
2019-04-28T18:20:02.582Z,52.28
2019-04-28T18:25:03.042Z,52.54
2019-04-28T18:30:02.451Z,52.71
2019-04-28T18:35:02.092Z,52.87
2019-04-28T18:40:02.628Z,53.03
2019-04-28T18:45:03.077Z,53.27
2019-04-28T18:50:02.494Z,53.42
2019-04-28T18:55:02.899Z,53.64
2019-04-28T19:00:03.368Z,53.76
2019-04-28T19:05:02.783Z,53.95
2019-04-28T19:10:03.278Z,54.07
2019-04-28T19:15:02.674Z,54.25
2019-04-28T19:20:03.210Z,54.32
2019-04-28T19:25:02.611Z,54.48
2019-04-28T19:30:03.063Z,54.6
2019-04-28T19:35:02.494Z,54.76
2019-04-28T19:40:02.906Z,54.86
2019-04-28T19:45:03.371Z,54.96
2019-04-28T19:50:02.913Z,55.09
2019-04-28T19:55:03.376Z,55.16
2019-04-28T20:00:02.784Z,55.28
2019-04-28T20:05:03.299Z,55.39
2019-04-28T20:10:02.750Z,55.58
2019-04-28T20:15:03.150Z,55.69
2019-04-28T20:20:02.615Z,55.71
2019-04-28T20:25:02.222Z,55.89
2019-04-28T20:30:02.639Z,55.98
2019-04-28T20:35:03.084Z,56.16
2019-04-28T20:40:02.499Z,56.23
2019-04-28T20:45:02.957Z,56.32
2019-04-28T20:50:02.381Z,56.41
2019-04-28T20:55:02.859Z,56.47
2019-04-28T21:00:03.388Z,56.48
2019-04-28T21:05:02.855Z,56.65
2019-04-28T21:10:03.358Z,56.64
2019-04-28T21:15:02.891Z,56.7
2019-04-28T21:20:03.421Z,56.76
2019-04-28T21:25:02.848Z,56.83
2019-04-28T21:30:03.496Z,56.95
2019-04-28T21:35:02.907Z,57.0
2019-04-28T21:40:03.353Z,57.1
2019-04-28T21:45:02.768Z,57.19
2019-04-28T21:50:03.215Z,57.28
2019-04-28T21:55:02.634Z,57.38
2019-04-28T22:00:03.086Z,57.38
2019-04-28T22:05:02.507Z,57.44
2019-04-28T22:10:02.985Z,57.51
2019-04-28T22:15:02.455Z,57.58
2019-04-28T22:20:02.904Z,57.69
2019-04-28T22:25:03.354Z,57.74
2019-04-28T22:30:02.763Z,57.78
2019-04-28T22:35:03.205Z,57.92
2019-04-28T22:40:02.733Z,57.94
2019-04-28T22:45:03.182Z,58.08
2019-04-28T22:50:02.588Z,58.1
2019-04-28T22:55:03.031Z,58.13
2019-04-28T23:00:06.730Z,58.2
2019-04-28T23:05:03.584Z,58.29
2019-04-28T23:10:03.138Z,58.29
2019-04-28T23:15:02.555Z,58.29
2019-04-28T23:20:02.996Z,58.32
2019-04-28T23:25:02.431Z,58.35
2019-04-28T23:30:02.862Z,58.39
2019-04-28T23:35:03.321Z,58.45
2019-04-28T23:40:02.825Z,58.51
2019-04-28T23:45:03.279Z,58.52
2019-04-28T23:50:02.818Z,58.55
2019-04-28T23:55:03.244Z,58.59
